createdAt,value
2022-08-02T00:01:04.442Z,64.99
2022-08-02T00:03:33.109Z,65.13
2022-08-02T00:06:01.597Z,65.14
2022-08-02T00:08:31.511Z,65.05
2022-08-02T00:10:59.987Z,65.08
2022-08-02T00:13:28.684Z,65.30
2022-08-02T00:15:57.175Z,65.68
2022-08-02T00:18:25.677Z,65.85
2022-08-02T00:20:54.220Z,65.65
2022-08-02T00:23:22.899Z,66.08
2022-08-02T00:25:54.750Z,66.14
2022-08-02T00:28:27.467Z,66.34
2022-08-02T00:30:58.277Z,66.35
2022-08-02T00:34:26.538Z,66.44
2022-08-02T00:36:16.059Z,67.14
2022-08-02T00:38:46.392Z,67.15
2022-08-02T00:41:19.326Z,67.34
2022-08-02T00:43:49.725Z,67.04
2022-08-02T00:46:20.606Z,67.03
2022-08-02T00:48:49.843Z,67.00
2022-08-02T00:51:18.843Z,67.01
2022-08-02T00:53:47.326Z,66.90
2022-08-02T00:56:17.079Z,66.86
2022-08-02T00:58:45.628Z,66.96
2022-08-02T01:01:14.207Z,66.50
2022-08-02T01:03:43.014Z,66.23
2022-08-02T01:06:11.964Z,66.75
2022-08-02T01:08:40.667Z,66.66
2022-08-02T01:11:09.507Z,66.92
2022-08-02T01:13:39.459Z,66.62
2022-08-02T01:16:17.516Z,66.77
2022-08-02T01:18:52.665Z,66.64
2022-08-02T01:21:47.646Z,66.73
2022-08-02T01:24:35.188Z,66.71
2022-08-02T01:27:22.156Z,66.87
2022-08-02T01:29:58.503Z,66.65
2022-08-02T01:32:32.037Z,66.96
2022-08-02T01:35:05.021Z,67.43
2022-08-02T01:37:53.130Z,67.34
2022-08-02T01:40:29.137Z,67.16
2022-08-02T01:42:58.930Z,67.33
2022-08-02T01:45:34.604Z,67.26
2022-08-02T01:48:04.989Z,66.97
2022-08-02T01:50:36.429Z,67.05
2022-08-02T01:53:11.403Z,67.15
2022-08-02T01:55:58.358Z,67.23
2022-08-02T01:58:32.752Z,67.47
2022-08-02T02:01:03.494Z,67.43
2022-08-02T02:03:33.974Z,67.54
2022-08-02T02:06:05.202Z,67.40
2022-08-02T02:08:40.198Z,67.74
2022-08-02T02:12:14.111Z,67.65
2022-08-02T02:14:00.405Z,67.59
2022-08-02T02:16:32.114Z,67.75
2022-08-02T02:19:03.247Z,67.75
2022-08-02T02:21:31.937Z,67.78
2022-08-02T02:24:04.185Z,67.64
2022-08-02T02:26:37.630Z,67.61
2022-08-02T02:29:12.559Z,67.53
2022-08-02T02:31:46.238Z,67.26
2022-08-02T02:34:18.845Z,67.42
2022-08-02T02:36:52.082Z,67.44
2022-08-02T02:39:24.133Z,67.21
2022-08-02T02:41:54.590Z,67.39
2022-08-02T02:44:24.360Z,67.36
2022-08-02T02:46:56.090Z,67.86
2022-08-02T02:49:26.239Z,67.90
2022-08-02T02:51:55.798Z,68.44
2022-08-02T02:54:31.070Z,68.56
2022-08-02T02:57:06.364Z,68.30
2022-08-02T02:59:36.342Z,68.53
2022-08-02T03:02:13.859Z,68.67
2022-08-02T03:04:57.113Z,69.21
2022-08-02T03:07:27.423Z,69.16
2022-08-02T03:09:56.119Z,69.04
2022-08-02T03:12:30.944Z,69.08
2022-08-02T03:15:02.152Z,68.85
2022-08-02T03:17:45.165Z,69.24
2022-08-02T03:20:16.702Z,69.69
2022-08-02T03:22:46.616Z,70.02
2022-08-02T03:25:16.834Z,70.28
2022-08-02T03:27:45.377Z,70.79
2022-08-02T03:30:15.758Z,70.56
2022-08-02T03:32:48.644Z,70.38
2022-08-02T03:35:23.746Z,69.92
2022-08-02T03:37:55.686Z,69.67
2022-08-02T03:40:25.039Z,69.72
2022-08-02T03:42:53.942Z,69.70
2022-08-02T03:45:23.070Z,69.68
2022-08-02T03:47:53.679Z,69.84
2022-08-02T03:50:29.063Z,69.70
2022-08-02T03:52:58.132Z,69.75
2022-08-02T03:55:26.940Z,69.97
2022-08-02T03:57:55.485Z,70.38
2022-08-02T04:00:24.599Z,70.63
2022-08-02T04:02:54.682Z,70.29
2022-08-02T04:05:23.515Z,70.08
2022-08-02T04:08:33.850Z,69.64
2022-08-02T04:10:58.521Z,70.01
2022-08-02T04:13:35.688Z,70.07
2022-08-02T04:16:12.456Z,70.42
2022-08-02T04:18:48.924Z,70.97
2022-08-02T04:21:19.320Z,71.08
2022-08-02T04:23:50.041Z,71.68
2022-08-02T04:26:19.636Z,71.89
2022-08-02T04:28:56.421Z,72.41
2022-08-02T04:31:25.659Z,72.79
2022-08-02T04:33:56.154Z,73.14
2022-08-02T04:36:30.819Z,73.33
2022-08-02T04:39:00.612Z,73.11
2022-08-02T04:41:43.991Z,73.70
2022-08-02T04:44:13.056Z,73.56
2022-08-02T04:46:43.262Z,73.56
2022-08-02T04:49:14.090Z,73.46
2022-08-02T04:51:44.920Z,73.97
2022-08-02T04:54:14.016Z,73.81
2022-08-02T04:56:42.586Z,72.12
2022-08-02T04:59:12.398Z,69.42
2022-08-02T05:01:42.486Z,67.28
2022-08-02T05:04:12.340Z,65.20
2022-08-02T05:06:40.883Z,63.60
2022-08-02T05:09:09.375Z,62.09
2022-08-02T05:11:37.797Z,61.17
2022-08-02T05:14:06.945Z,60.30
2022-08-02T05:16:35.461Z,61.45
2022-08-02T05:19:04.050Z,62.85
2022-08-02T05:21:33.866Z,64.16
2022-08-02T05:24:02.243Z,64.29
2022-08-02T05:26:30.693Z,64.76
2022-08-02T05:28:59.320Z,65.38
2022-08-02T05:31:27.766Z,65.74
2022-08-02T05:33:56.322Z,64.99
2022-08-02T05:36:24.710Z,63.43
2022-08-02T05:38:59.694Z,62.34
2022-08-02T05:41:33.842Z,61.86
2022-08-02T05:44:02.343Z,61.47
2022-08-02T05:46:30.923Z,60.99
2022-08-02T05:49:00.145Z,61.07
2022-08-02T05:51:37.964Z,61.16
2022-08-02T05:54:19.400Z,59.62
2022-08-02T05:56:53.058Z,57.93
2022-08-02T05:59:31.135Z,57.25
2022-08-02T06:02:05.219Z,57.28
2022-08-02T06:04:49.611Z,57.17
2022-08-02T06:07:20.836Z,55.03
2022-08-02T06:09:52.269Z,55.63
2022-08-02T06:12:22.051Z,55.71
2022-08-02T06:14:54.376Z,53.27
2022-08-02T06:17:24.190Z,53.01
2022-08-02T06:19:55.070Z,52.26
2022-08-02T06:22:37.213Z,51.10
2022-08-02T06:25:48.017Z,49.97
2022-08-02T06:27:58.455Z,48.91
2022-08-02T06:30:27.821Z,47.81
2022-08-02T06:32:56.667Z,47.74
2022-08-02T06:35:43.774Z,47.56
2022-08-02T06:38:18.473Z,48.15
2022-08-02T06:40:57.306Z,49.47
2022-08-02T06:43:36.212Z,50.81
2022-08-02T06:46:38.093Z,51.37
2022-08-02T06:48:57.751Z,49.54
2022-08-02T06:51:26.287Z,48.75
2022-08-02T06:53:55.201Z,46.77
2022-08-02T06:56:25.071Z,46.96
2022-08-02T06:58:53.586Z,46.93
2022-08-02T07:01:22.348Z,49.04
2022-08-02T07:03:51.047Z,47.02
2022-08-02T07:06:19.608Z,46.32
2022-08-02T07:09:11.297Z,46.12
2022-08-02T07:11:39.289Z,45.26
2022-08-02T07:14:07.660Z,45.52
2022-08-02T07:16:36.148Z,45.41
2022-08-02T07:19:04.711Z,44.11
2022-08-02T07:21:56.466Z,44.09
2022-08-02T07:24:21.600Z,42.83
2022-08-02T07:27:10.746Z,42.69
2022-08-02T07:29:46.328Z,43.96
2022-08-02T07:32:16.385Z,45.05
2022-08-02T07:34:50.482Z,46.64
2022-08-02T07:37:53.286Z,47.81
2022-08-02T07:40:14.524Z,50.07
2022-08-02T07:42:45.689Z,49.84
2022-08-02T07:45:15.706Z,48.14
2022-08-02T07:47:45.874Z,45.97
2022-08-02T07:50:16.761Z,44.49
2022-08-02T07:52:46.389Z,43.32
2022-08-02T07:55:16.380Z,40.46
2022-08-02T07:57:47.668Z,38.21
2022-08-02T08:00:18.310Z,37.62
2022-08-02T08:02:48.173Z,38.15
2022-08-02T08:05:16.950Z,36.73
2022-08-02T08:07:45.499Z,35.01
2022-08-02T08:10:13.956Z,33.00
2022-08-02T08:12:42.481Z,32.39
2022-08-02T08:15:12.753Z,32.69
2022-08-02T08:17:41.592Z,33.57
2022-08-02T08:20:15.608Z,33.13
2022-08-02T08:22:44.461Z,31.90
2022-08-02T08:25:12.939Z,31.50
2022-08-02T08:27:50.257Z,31.99
2022-08-02T08:30:22.005Z,33.50
2022-08-02T08:32:50.921Z,31.73
2022-08-02T08:35:19.373Z,31.87
2022-08-02T08:37:47.857Z,29.91
2022-08-02T08:40:19.701Z,29.88
2022-08-02T08:42:48.499Z,28.39
2022-08-02T08:45:18.055Z,28.85
2022-08-02T08:47:54.234Z,27.66
2022-08-02T08:50:28.047Z,27.24
2022-08-02T08:53:04.456Z,27.07
2022-08-02T08:55:35.449Z,26.47
2022-08-02T08:58:05.777Z,28.34
2022-08-02T09:00:36.420Z,30.14
2022-08-02T09:03:08.592Z,31.68
2022-08-02T09:05:38.901Z,31.03
2022-08-02T09:08:07.857Z,29.93
2022-08-02T09:10:41.962Z,29.23
2022-08-02T09:13:39.256Z,29.74
2022-08-02T09:16:13.106Z,29.59
2022-08-02T09:18:47.618Z,29.07
2022-08-02T09:21:17.638Z,29.33
2022-08-02T09:23:48.916Z,31.01
2022-08-02T09:26:19.162Z,29.96
2022-08-02T09:28:50.386Z,30.94
2022-08-02T09:31:22.095Z,29.94
2022-08-02T09:33:56.595Z,28.65
2022-08-02T09:36:26.277Z,28.79
2022-08-02T09:38:58.606Z,28.75
2022-08-02T09:41:29.796Z,29.57
2022-08-02T09:44:04.763Z,28.92
2022-08-02T09:46:38.917Z,28.39
2022-08-02T09:49:13.223Z,28.69
2022-08-02T09:51:50.477Z,28.80
2022-08-02T09:54:21.360Z,28.03
2022-08-02T09:56:51.814Z,28.02
2022-08-02T09:59:24.643Z,27.45
2022-08-02T10:02:02.262Z,27.19
2022-08-02T10:04:53.434Z,26.74
2022-08-02T10:07:23.452Z,27.82
2022-08-02T10:09:52.317Z,27.41
2022-08-02T10:12:22.390Z,26.73
2022-08-02T10:14:52.876Z,26.78
2022-08-02T10:17:22.556Z,26.49
2022-08-02T10:20:00.850Z,26.74
2022-08-02T10:22:34.778Z,27.85
2022-08-02T10:25:05.865Z,27.23
2022-08-02T10:28:02.472Z,30.73
2022-08-02T10:30:25.870Z,25.16
2022-08-02T10:32:56.298Z,26.26
2022-08-02T10:35:27.204Z,25.11
2022-08-02T10:38:07.874Z,25.92
2022-08-02T10:40:50.857Z,27.23
2022-08-02T10:43:44.296Z,27.03
2022-08-02T10:46:33.546Z,29.75
2022-08-02T10:49:36.694Z,29.42
2022-08-02T10:52:11.365Z,26.85
2022-08-02T10:54:42.159Z,26.75
2022-08-02T10:57:22.799Z,28.47
2022-08-02T10:59:53.514Z,30.53
2022-08-02T11:02:42.834Z,26.99
2022-08-02T11:05:15.547Z,27.40
2022-08-02T11:07:49.407Z,28.63
2022-08-02T11:10:37.535Z,26.32
2022-08-02T11:13:10.885Z,25.50
2022-08-02T11:16:01.279Z,25.82
2022-08-02T11:19:06.703Z,25.31
2022-08-02T11:21:37.338Z,25.32
2022-08-02T11:24:33.327Z,28.47
2022-08-02T11:27:03.191Z,26.94
2022-08-02T11:29:40.500Z,28.28
2022-08-02T11:32:10.943Z,28.05
2022-08-02T11:34:40.768Z,27.08
2022-08-02T11:37:09.264Z,28.87
2022-08-02T11:39:39.290Z,26.98
2022-08-02T11:42:08.737Z,28.35
2022-08-02T11:44:43.212Z,26.08
2022-08-02T11:47:12.600Z,30.07
2022-08-02T11:49:41.277Z,29.92
2022-08-02T11:52:11.675Z,28.71
2022-08-02T11:54:44.197Z,28.12
2022-08-02T11:57:20.894Z,30.90
2022-08-02T11:59:54.302Z,27.94
2022-08-02T12:02:25.150Z,27.37
2022-08-02T12:04:57.310Z,28.41
2022-08-02T12:07:34.961Z,33.19
2022-08-02T12:10:09.700Z,31.24
2022-08-02T12:12:50.383Z,29.32
2022-08-02T12:15:32.773Z,31.76
2022-08-02T12:18:19.643Z,31.30
2022-08-02T12:20:48.464Z,35.47
2022-08-02T12:23:16.853Z,33.70
2022-08-02T12:25:46.749Z,29.07
2022-08-02T12:28:18.303Z,34.92
2022-08-02T12:30:55.604Z,32.43
2022-08-02T12:33:25.632Z,28.58
2022-08-02T12:35:54.647Z,30.90
2022-08-02T12:38:23.491Z,30.18
2022-08-02T12:40:54.231Z,31.43
2022-08-02T12:43:25.242Z,33.46
2022-08-02T12:45:56.664Z,33.96
2022-08-02T12:48:38.413Z,33.76
2022-08-02T12:51:56.763Z,33.92
2022-08-02T12:54:18.275Z,33.06
2022-08-02T12:56:49.041Z,28.04
2022-08-02T12:59:18.203Z,29.57
2022-08-02T13:01:48.478Z,33.03
2022-08-02T13:04:16.996Z,30.89
2022-08-02T13:06:45.818Z,32.51
2022-08-02T13:09:17.006Z,29.28
2022-08-02T13:11:47.508Z,29.67
2022-08-02T13:14:16.428Z,28.92
2022-08-02T13:16:47.006Z,28.51
2022-08-02T13:19:16.341Z,30.01
2022-08-02T13:22:02.722Z,30.38
2022-08-02T13:24:39.911Z,31.55
2022-08-02T13:27:26.240Z,28.18
2022-08-02T13:29:56.744Z,32.05
2022-08-02T13:32:27.931Z,30.46
2022-08-02T13:34:57.267Z,29.16
2022-08-02T13:37:26.314Z,31.49
2022-08-02T13:40:19.975Z,27.64
2022-08-02T13:42:45.018Z,29.02
2022-08-02T13:45:14.338Z,29.12
2022-08-02T13:47:57.490Z,31.22
2022-08-02T13:50:34.041Z,33.79
2022-08-02T13:53:02.524Z,33.08
2022-08-02T13:55:31.104Z,32.82
2022-08-02T13:58:00.931Z,32.84
2022-08-02T14:00:35.445Z,33.50
2022-08-02T14:03:07.117Z,33.19
2022-08-02T14:05:48.043Z,31.78
2022-08-02T14:08:18.422Z,34.83
2022-08-02T14:10:48.097Z,33.14
2022-08-02T14:13:18.793Z,32.37
2022-08-02T14:15:47.789Z,30.97
2022-08-02T14:18:16.537Z,31.19
2022-08-02T14:20:45.331Z,28.38
2022-08-02T14:23:13.855Z,33.20
2022-08-02T14:25:42.634Z,31.84
2022-08-02T14:28:11.044Z,30.47
2022-08-02T14:30:40.961Z,31.41
2022-08-02T14:33:09.445Z,29.84
2022-08-02T14:35:37.849Z,29.37
2022-08-02T14:38:07.205Z,32.13
2022-08-02T14:40:36.018Z,28.80
2022-08-02T14:43:05.353Z,32.24
2022-08-02T14:45:36.963Z,32.52
2022-08-02T14:48:12.233Z,33.50
2022-08-02T14:50:40.804Z,32.93
2022-08-02T14:53:12.761Z,28.52
2022-08-02T14:55:43.185Z,27.77
2022-08-02T14:58:12.048Z,33.37
2022-08-02T15:00:41.718Z,32.67
2022-08-02T15:03:14.825Z,30.94
2022-08-02T15:05:43.322Z,29.84
2022-08-02T15:08:11.821Z,31.63
2022-08-02T15:10:46.654Z,32.92
2022-08-02T15:13:17.835Z,33.36
2022-08-02T15:15:46.211Z,33.43
2022-08-02T15:18:16.124Z,33.47
2022-08-02T15:20:57.457Z,33.77
2022-08-02T15:23:37.575Z,34.15
2022-08-02T15:26:07.779Z,30.29
2022-08-02T15:28:38.522Z,33.57
2022-08-02T15:31:06.947Z,31.73
2022-08-02T15:33:36.760Z,32.71
2022-08-02T15:36:06.058Z,32.50
2022-08-02T15:38:34.826Z,31.17
2022-08-02T15:41:04.374Z,30.09
2022-08-02T15:43:32.926Z,32.28
2022-08-02T15:46:01.369Z,29.36
2022-08-02T15:48:29.906Z,32.01
2022-08-02T15:50:59.726Z,30.61
2022-08-02T15:53:28.171Z,32.02
2022-08-02T15:56:05.693Z,32.04
2022-08-02T15:58:44.301Z,35.63
2022-08-02T16:01:13.423Z,34.62
2022-08-02T16:03:41.898Z,30.07
2022-08-02T16:06:12.393Z,32.66
2022-08-02T16:08:53.570Z,28.68
2022-08-02T16:11:23.862Z,28.31
2022-08-02T16:13:54.255Z,30.77
2022-08-02T16:16:24.537Z,28.20
2022-08-02T16:18:53.234Z,31.92
2022-08-02T16:21:24.708Z,32.36
2022-08-02T16:23:58.646Z,32.49
2022-08-02T16:26:32.439Z,34.75
2022-08-02T16:29:02.355Z,35.26
2022-08-02T16:31:30.956Z,33.89
2022-08-02T16:33:59.977Z,35.07
2022-08-02T16:36:31.203Z,32.69
2022-08-02T16:38:59.751Z,30.83
2022-08-02T16:41:50.888Z,32.27
2022-08-02T16:44:17.336Z,34.85
2022-08-02T16:46:46.039Z,30.13
2022-08-02T16:50:05.021Z,30.44
2022-08-02T16:52:05.263Z,33.02
2022-08-02T16:54:33.717Z,29.98
2022-08-02T16:57:04.986Z,30.06
2022-08-02T16:59:42.707Z,34.18
2022-08-02T17:02:18.519Z,34.08
2022-08-02T17:04:49.263Z,30.81
2022-08-02T17:08:06.151Z,35.29
2022-08-02T17:10:09.745Z,30.05
2022-08-02T17:12:39.217Z,29.47
2022-08-02T17:16:16.569Z,30.57
2022-08-02T17:18:01.128Z,30.46
2022-08-02T17:20:30.276Z,34.18
2022-08-02T17:23:00.623Z,32.89
2022-08-02T17:25:31.945Z,30.45
2022-08-02T17:28:01.174Z,31.71
2022-08-02T17:30:29.724Z,30.75
2022-08-02T17:32:59.335Z,31.11
2022-08-02T17:35:43.733Z,34.55
2022-08-02T17:38:26.674Z,35.40
2022-08-02T17:40:56.629Z,36.22
2022-08-02T17:43:25.978Z,31.38
2022-08-02T17:46:02.248Z,31.17
2022-08-02T17:49:04.290Z,32.41
2022-08-02T17:51:33.096Z,36.21
2022-08-02T17:54:22.893Z,30.96
2022-08-02T17:56:51.983Z,30.68
2022-08-02T17:59:31.090Z,32.56
2022-08-02T18:02:11.250Z,30.87
2022-08-02T18:04:40.049Z,34.77
2022-08-02T18:07:10.377Z,36.10
2022-08-02T18:12:30.026Z,34.34
2022-08-02T18:14:58.436Z,36.29
2022-08-02T18:17:27.034Z,33.77
2022-08-02T18:22:46.300Z,36.71
2022-08-02T18:25:37.278Z,35.74
2022-08-02T18:28:13.648Z,33.21
2022-08-02T18:30:42.066Z,34.84
2022-08-02T18:34:00.467Z,35.03
2022-08-02T18:35:58.895Z,32.44
2022-08-02T18:38:30.160Z,37.11
2022-08-02T18:41:02.823Z,32.84
2022-08-02T18:43:34.466Z,32.75
2022-08-02T18:46:15.844Z,38.24
2022-08-02T18:48:47.897Z,32.30
2022-08-02T18:51:18.761Z,33.77
2022-08-02T18:53:51.231Z,35.47
2022-08-02T18:56:24.378Z,36.34
2022-08-02T18:58:55.323Z,33.75
2022-08-02T19:01:33.873Z,32.80
2022-08-02T19:04:05.147Z,34.97
2022-08-02T19:06:33.988Z,36.73
2022-08-02T19:09:04.945Z,33.09
2022-08-02T19:11:41.366Z,35.90
2022-08-02T19:14:19.127Z,32.81
2022-08-02T19:16:56.634Z,32.89
2022-08-02T19:19:28.954Z,33.45
2022-08-02T19:22:18.295Z,33.54
2022-08-02T19:24:47.824Z,33.21
2022-08-02T19:27:26.300Z,34.16
2022-08-02T19:30:02.876Z,34.16
2022-08-02T19:32:41.591Z,34.60
2022-08-02T19:35:30.542Z,35.66
2022-08-02T19:38:09.378Z,34.39
2022-08-02T19:40:41.672Z,34.36
2022-08-02T19:44:21.132Z,37.30
2022-08-02T19:46:01.645Z,34.53
2022-08-02T19:48:30.803Z,34.74
2022-08-02T19:51:00.807Z,34.64
2022-08-02T19:53:47.520Z,35.90
2022-08-02T19:59:13.245Z,36.38
2022-08-02T20:01:48.589Z,35.40
2022-08-02T20:04:22.183Z,35.21
2022-08-02T20:06:52.154Z,36.00
2022-08-02T20:09:23.395Z,34.75
2022-08-02T20:11:54.945Z,34.95
2022-08-02T20:14:27.718Z,35.21
2022-08-02T20:16:57.643Z,35.52
2022-08-02T20:19:29.608Z,36.51
2022-08-02T20:22:00.558Z,35.92
2022-08-02T20:24:30.043Z,35.54
2022-08-02T20:26:59.217Z,35.90
2022-08-02T20:29:43.721Z,36.04
2022-08-02T20:32:21.301Z,36.16
2022-08-02T20:34:52.451Z,36.15
2022-08-02T20:37:55.934Z,36.81
2022-08-02T20:40:16.398Z,36.85
2022-08-02T20:42:47.900Z,36.84
2022-08-02T20:45:19.153Z,37.11
2022-08-02T20:47:51.024Z,36.98
2022-08-02T20:50:38.643Z,37.60
2022-08-02T20:53:08.690Z,37.22
2022-08-02T20:55:54.256Z,37.41
2022-08-02T20:58:26.920Z,37.42
2022-08-02T21:00:59.823Z,37.70
2022-08-02T21:03:39.376Z,38.05
2022-08-02T21:06:11.362Z,37.67
2022-08-02T21:08:46.118Z,37.76
2022-08-02T21:11:15.074Z,38.50
2022-08-02T21:13:47.313Z,38.29
2022-08-02T21:16:33.315Z,38.89
2022-08-02T21:19:02.325Z,38.96
2022-08-02T21:21:31.110Z,39.26
2022-08-02T21:24:01.488Z,39.31
2022-08-02T21:26:31.299Z,39.40
2022-08-02T21:29:04.392Z,39.28
2022-08-02T21:31:35.696Z,39.00
2022-08-02T21:34:21.599Z,39.40
2022-08-02T21:36:51.309Z,39.35
2022-08-02T21:39:20.537Z,39.40
2022-08-02T21:41:49.633Z,40.23
2022-08-02T21:44:20.494Z,39.01
2022-08-02T21:46:53.779Z,39.59
2022-08-02T21:49:27.144Z,39.33
2022-08-02T21:52:10.280Z,39.43
2022-08-02T21:54:39.909Z,39.59
2022-08-02T21:57:15.157Z,39.74
2022-08-02T21:59:46.248Z,40.25
2022-08-02T22:02:18.142Z,39.74
2022-08-02T22:04:48.008Z,38.73
2022-08-02T22:07:24.077Z,38.53
2022-08-02T22:09:52.987Z,38.82
2022-08-02T22:12:26.327Z,38.40
2022-08-02T22:14:56.493Z,38.13
2022-08-02T22:17:49.947Z,38.45
2022-08-02T22:20:19.719Z,38.66
2022-08-02T22:22:50.721Z,37.79
2022-08-02T22:25:26.803Z,38.27
2022-08-02T22:28:35.572Z,38.23
2022-08-02T22:30:57.308Z,38.23
2022-08-02T22:33:47.101Z,38.56
2022-08-02T22:36:29.912Z,38.95
2022-08-02T22:38:58.443Z,38.89
2022-08-02T22:42:00.912Z,39.21
2022-08-02T22:44:16.841Z,39.44
2022-08-02T22:46:50.290Z,39.41
2022-08-02T22:49:38.670Z,39.30
2022-08-02T22:52:10.706Z,40.03
2022-08-02T22:54:39.557Z,40.11
2022-08-02T22:57:11.386Z,40.09
2022-08-02T22:58:43.845Z,36.47
2022-08-02T22:58:57.895Z,33.44
2022-08-02T22:59:05.753Z,34.59
2022-08-02T22:59:41.415Z,40.11
2022-08-02T23:02:10.750Z,40.48
2022-08-02T23:04:40.604Z,40.95
2022-08-02T23:07:09.081Z,40.60
2022-08-02T23:09:37.870Z,41.09
2022-08-02T23:12:06.944Z,40.91
2022-08-02T23:14:36.379Z,40.92
2022-08-02T23:17:22.053Z,41.09
2022-08-02T23:19:51.845Z,41.42
2022-08-02T23:22:21.813Z,41.67
2022-08-02T23:24:58.772Z,42.19
2022-08-02T23:27:27.147Z,42.33
2022-08-02T23:29:55.698Z,42.50
2022-08-02T23:32:25.755Z,42.80
2022-08-02T23:34:56.455Z,43.07
2022-08-02T23:37:25.448Z,43.39
2022-08-02T23:39:53.904Z,43.94
2022-08-02T23:42:23.310Z,44.33
2022-08-02T23:44:51.790Z,44.72
2022-08-02T23:47:20.392Z,44.55
2022-08-02T23:49:48.795Z,45.22
2022-08-02T23:52:18.918Z,45.44
2022-08-02T23:54:47.481Z,45.88
2022-08-02T23:57:20.158Z,45.90
2022-08-02T23:59:51.638Z,46.44
